createdAt,value
2018-06-11T00:01:54.145Z,14.67
2018-06-11T00:04:31.164Z,15.17
2018-06-11T00:07:07.904Z,16.20
2018-06-11T00:09:44.664Z,16.90
2018-06-11T00:12:22.006Z,16.40
2018-06-11T00:14:51.308Z,18.03
2018-06-11T00:17:20.618Z,16.90
2018-06-11T00:19:50.118Z,17.73
2018-06-11T00:22:21.130Z,16.30
2018-06-11T00:24:58.506Z,15.17
2018-06-11T00:27:34.860Z,17.10
2018-06-11T00:30:04.452Z,14.93
2018-06-11T00:32:34.618Z,15.97
2018-06-11T00:35:04.536Z,17.67
2018-06-11T00:37:33.604Z,18.47
2018-06-11T00:40:02.725Z,18.90
2018-06-11T00:42:33.877Z,19.27
2018-06-11T00:45:03.285Z,19.13
2018-06-11T00:47:32.714Z,18.50
2018-06-11T00:50:02.142Z,17.03
2018-06-11T00:52:32.525Z,18.23
2018-06-11T00:55:01.902Z,16.67
2018-06-11T00:57:31.329Z,16.30
2018-06-11T01:00:00.676Z,16.50
2018-06-11T01:02:31.057Z,16.33
2018-06-11T01:05:00.349Z,15.87
2018-06-11T01:07:29.780Z,16.10
2018-06-11T01:09:59.173Z,16.23
2018-06-11T01:12:29.613Z,15.60
2018-06-11T01:14:59.017Z,22.73
2018-06-11T01:17:28.386Z,19.37
2018-06-11T01:19:57.709Z,16.77
2018-06-11T01:22:27.069Z,15.53
2018-06-11T01:24:56.402Z,15.70
2018-06-11T01:27:25.753Z,15.47
2018-06-11T01:29:55.190Z,17.67
2018-06-11T01:32:25.658Z,15.90
2018-06-11T01:34:55.139Z,17.23
2018-06-11T01:37:24.460Z,17.87
2018-06-11T01:39:53.798Z,17.27
2018-06-11T01:42:23.261Z,18.33
2018-06-11T01:44:52.647Z,17.50
2018-06-11T01:47:21.978Z,17.60
2018-06-11T01:49:51.313Z,17.13
2018-06-11T01:52:21.606Z,19.23
2018-06-11T01:54:51.068Z,18.77
2018-06-11T01:57:20.437Z,19.47
2018-06-11T01:59:49.788Z,19.97
2018-06-11T02:02:20.221Z,18.07
2018-06-11T02:04:49.514Z,16.90
2018-06-11T02:07:18.882Z,17.70
2018-06-11T02:09:48.189Z,17.73
2018-06-11T02:12:17.653Z,21.07
2018-06-11T02:14:46.997Z,17.30
2018-06-11T02:17:22.997Z,19.43
2018-06-11T02:19:52.380Z,17.07
2018-06-11T02:22:21.742Z,17.13
2018-06-11T02:24:51.094Z,16.00
2018-06-11T02:27:20.452Z,18.10
2018-06-11T02:29:49.770Z,21.20
2018-06-11T02:32:21.162Z,19.40
2018-06-11T02:34:50.485Z,22.40
2018-06-11T02:37:19.798Z,19.73
2018-06-11T02:39:49.157Z,20.07
2018-06-11T02:42:19.501Z,20.73
2018-06-11T02:44:48.893Z,17.93
2018-06-11T02:47:18.306Z,17.97
2018-06-11T02:49:47.709Z,18.60
2018-06-11T02:52:18.121Z,17.23
2018-06-11T02:54:47.536Z,18.87
2018-06-11T02:57:16.874Z,18.67
2018-06-11T02:59:46.282Z,18.47
2018-06-11T03:02:16.706Z,18.93
2018-06-11T03:04:46.018Z,18.03
2018-06-11T03:07:15.345Z,18.47
2018-06-11T03:09:44.769Z,17.40
2018-06-11T03:12:15.182Z,19.00
2018-06-11T03:14:44.557Z,17.40
2018-06-11T03:17:13.932Z,28.33
2018-06-11T03:19:43.298Z,19.23
2018-06-11T03:22:14.712Z,20.80
2018-06-11T03:24:44.065Z,20.80
2018-06-11T03:27:13.400Z,20.33
2018-06-11T03:29:42.566Z,19.10
2018-06-11T03:32:12.712Z,18.23
2018-06-11T03:34:41.793Z,21.23
2018-06-11T03:37:10.946Z,16.30
2018-06-11T03:39:40.027Z,16.97
2018-06-11T03:42:11.197Z,16.17
2018-06-11T03:44:40.341Z,18.17
2018-06-11T03:47:09.489Z,17.40
2018-06-11T03:49:38.604Z,17.27
2018-06-11T03:52:07.813Z,22.87
2018-06-11T03:54:36.890Z,19.17
2018-06-11T03:57:06.042Z,19.50
2018-06-11T03:59:35.145Z,18.63
2018-06-11T04:02:06.340Z,16.83
2018-06-11T04:04:35.489Z,18.67
2018-06-11T04:07:04.612Z,21.40
2018-06-11T04:09:33.754Z,19.97
2018-06-11T04:12:03.157Z,19.93
2018-06-11T04:14:32.646Z,18.50
2018-06-11T04:17:01.966Z,18.53
2018-06-11T04:19:31.261Z,17.73
2018-06-11T04:22:00.764Z,18.10
2018-06-11T04:24:45.161Z,20.00
2018-06-11T04:27:33.821Z,20.93
2018-06-11T04:30:10.841Z,22.80
2018-06-11T04:32:48.053Z,21.53
2018-06-11T04:35:17.954Z,21.00
2018-06-11T04:37:55.159Z,22.03
2018-06-11T04:40:24.293Z,19.37
2018-06-11T04:42:53.405Z,21.43
2018-06-11T04:45:22.556Z,20.97
2018-06-11T04:47:51.725Z,22.50
2018-06-11T04:50:28.578Z,20.27
2018-06-11T04:53:05.745Z,19.53
2018-06-11T04:55:34.841Z,20.53
2018-06-11T04:58:03.996Z,22.03
2018-06-11T05:00:33.239Z,21.40
2018-06-11T05:03:02.590Z,19.87
2018-06-11T05:05:39.001Z,20.67
2018-06-11T05:08:15.849Z,20.33
2018-06-11T05:10:52.678Z,22.70
2018-06-11T05:13:29.478Z,21.50
2018-06-11T05:15:58.638Z,18.90
2018-06-11T05:18:35.650Z,20.37
2018-06-11T05:21:06.896Z,20.80
2018-06-11T05:23:36.262Z,21.97
2018-06-11T05:26:05.652Z,19.53
2018-06-11T05:28:34.990Z,21.23
2018-06-11T05:31:06.455Z,20.93
2018-06-11T05:33:35.818Z,19.87
2018-06-11T05:36:05.239Z,20.50
2018-06-11T05:38:42.274Z,19.17
2018-06-11T05:41:12.435Z,17.70
2018-06-11T05:43:41.521Z,18.13
2018-06-11T05:46:10.906Z,18.43
2018-06-11T05:48:40.263Z,18.77
2018-06-11T05:51:12.881Z,17.73
2018-06-11T05:53:42.281Z,16.67
2018-06-11T05:56:18.984Z,16.10
2018-06-11T05:58:48.320Z,15.43
2018-06-11T06:01:18.722Z,16.57
2018-06-11T06:03:48.098Z,16.97
2018-06-11T06:06:17.451Z,15.13
2018-06-11T06:08:46.872Z,15.00
2018-06-11T06:11:17.329Z,14.57
2018-06-11T06:13:46.700Z,15.23
2018-06-11T06:16:16.054Z,14.20
2018-06-11T06:18:45.476Z,14.97
2018-06-11T06:21:16.826Z,13.73
2018-06-11T06:23:46.235Z,14.20
2018-06-11T06:26:15.690Z,13.87
2018-06-11T06:28:45.090Z,12.57
2018-06-11T06:31:14.520Z,12.57
2018-06-11T06:33:43.966Z,13.53
2018-06-11T06:36:13.323Z,13.23
2018-06-11T06:38:42.714Z,14.37
2018-06-11T06:41:12.171Z,12.93
2018-06-11T06:43:41.646Z,12.17
2018-06-11T06:46:11.066Z,12.33
2018-06-11T06:48:40.462Z,12.47
2018-06-11T06:51:10.893Z,12.67
2018-06-11T06:53:40.233Z,11.97
2018-06-11T06:56:09.637Z,11.37
2018-06-11T06:58:39.073Z,11.57
2018-06-11T07:01:09.555Z,12.23
2018-06-11T07:03:39.003Z,10.90
2018-06-11T07:06:08.408Z,11.03
2018-06-11T07:08:37.827Z,10.93
2018-06-11T07:11:08.225Z,11.10
2018-06-11T07:13:37.761Z,11.33
2018-06-11T07:16:07.219Z,11.70
2018-06-11T07:18:36.695Z,10.93
2018-06-11T07:21:07.134Z,11.00
2018-06-11T07:23:36.570Z,10.90
2018-06-11T07:26:06.091Z,10.47
2018-06-11T07:28:47.184Z,10.23
2018-06-11T07:31:18.200Z,10.87
2018-06-11T07:33:47.281Z,11.03
2018-06-11T07:36:16.571Z,10.88
2018-06-11T07:38:45.898Z,10.33
2018-06-11T07:41:19.677Z,12.13
2018-06-11T07:43:55.916Z,10.32
2018-06-11T07:46:33.122Z,11.50
2018-06-11T07:49:14.467Z,10.53
2018-06-11T07:52:00.402Z,10.78
2018-06-11T07:54:37.701Z,9.13
2018-06-11T07:57:07.111Z,10.63
2018-06-11T07:59:51.877Z,10.13
2018-06-11T08:02:37.118Z,10.13
2018-06-11T08:05:18.711Z,9.88
2018-06-11T08:07:49.378Z,9.50
2018-06-11T08:10:18.534Z,9.23
2018-06-11T08:12:47.830Z,9.75
2018-06-11T08:15:45.822Z,9.35
2018-06-11T08:18:15.148Z,10.40
2018-06-11T08:20:52.086Z,9.80
2018-06-11T08:23:29.155Z,10.95
2018-06-11T08:26:13.388Z,10.65
2018-06-11T08:28:49.864Z,10.63
2018-06-11T08:31:27.469Z,10.70
2018-06-11T08:33:56.696Z,10.53
2018-06-11T08:36:29.277Z,11.43
2018-06-11T08:38:58.665Z,11.08
2018-06-11T08:41:28.100Z,11.68
2018-06-11T08:43:57.493Z,11.25
2018-06-11T08:46:26.848Z,12.15
2018-06-11T08:48:56.187Z,10.90
2018-06-11T08:51:25.922Z,12.80
2018-06-11T08:53:55.407Z,11.93
2018-06-11T08:56:24.758Z,11.22
2018-06-11T09:01:28.458Z,9.50
2018-06-11T09:03:57.902Z,9.75
2018-06-11T09:06:27.757Z,10.40
2018-06-11T09:08:57.177Z,10.40
2018-06-11T09:11:32.457Z,10.60
2018-06-11T09:14:01.793Z,10.48
2018-06-11T09:16:47.822Z,10.95
2018-06-11T09:19:25.966Z,10.78
2018-06-11T09:22:09.252Z,10.15
2018-06-11T09:27:26.899Z,9.80
2018-06-11T09:29:56.347Z,9.85
2018-06-11T09:32:26.487Z,11.25
2018-06-11T09:34:55.901Z,12.60
2018-06-11T09:37:35.583Z,21.35
2018-06-11T09:40:32.047Z,14.47
2018-06-11T09:43:01.665Z,13.37
2018-06-11T09:45:31.288Z,7.07
2018-06-11T09:48:00.764Z,6.57
2018-06-11T09:50:29.925Z,7.87
2018-06-11T09:52:59.049Z,10.90
2018-06-11T09:55:28.583Z,8.90
2018-06-11T09:57:58.115Z,5.87
2018-06-11T10:00:36.320Z,6.93
2018-06-11T10:03:06.055Z,7.97
2018-06-11T10:05:35.674Z,3.70
2018-06-11T10:08:05.045Z,5.83
2018-06-11T10:10:34.522Z,5.97
2018-06-11T10:13:04.023Z,5.07
2018-06-11T10:15:33.411Z,6.03
2018-06-11T10:18:02.835Z,4.70
2018-06-11T10:20:32.295Z,4.10
2018-06-11T10:23:01.760Z,4.37
2018-06-11T10:25:31.307Z,3.30
2018-06-11T10:28:00.687Z,3.77
2018-06-11T10:30:31.242Z,4.90
2018-06-11T10:33:00.808Z,7.03
2018-06-11T10:35:30.454Z,7.97
2018-06-11T10:38:00.089Z,5.20
2018-06-11T10:40:30.534Z,8.60
2018-06-11T10:43:12.454Z,6.65
2018-06-11T10:45:41.990Z,5.20
2018-06-11T10:48:11.132Z,6.00
2018-06-11T10:50:41.018Z,5.80
2018-06-11T10:53:10.422Z,7.47
2018-06-11T10:55:40.463Z,6.30
2018-06-11T10:58:09.790Z,7.28
2018-06-11T11:00:41.234Z,6.75
2018-06-11T11:03:10.598Z,6.55
2018-06-11T11:05:40.516Z,6.42
2018-06-11T11:08:09.911Z,9.20
2018-06-11T11:10:40.523Z,9.93
2018-06-11T11:13:09.858Z,10.70
2018-06-11T11:15:39.299Z,8.45
2018-06-11T11:18:08.977Z,9.23
2018-06-11T11:20:40.573Z,10.70
2018-06-11T11:23:09.938Z,11.50
2018-06-11T11:25:39.290Z,8.25
2018-06-11T11:28:08.710Z,8.43
2018-06-11T11:30:40.187Z,10.00
2018-06-11T11:33:09.523Z,9.90
2018-06-11T11:35:38.862Z,8.95
2018-06-11T11:38:08.264Z,9.33
2018-06-11T11:40:38.531Z,8.90
2018-06-11T11:43:07.943Z,10.10
2018-06-11T11:45:37.390Z,9.63
2018-06-11T11:48:06.909Z,11.12
2018-06-11T11:50:48.301Z,11.03
2018-06-11T11:53:17.485Z,11.45
2018-06-11T11:55:46.640Z,12.43
2018-06-11T11:58:15.776Z,12.13
2018-06-11T12:00:46.031Z,11.38
2018-06-11T12:03:15.189Z,11.15
2018-06-11T12:05:44.341Z,10.90
2018-06-11T12:08:13.465Z,11.57
2018-06-11T12:10:43.614Z,11.25
2018-06-11T12:13:12.707Z,11.53
2018-06-11T12:15:41.847Z,13.35
2018-06-11T12:18:11.030Z,11.90
2018-06-11T12:20:40.170Z,14.38
2018-06-11T12:23:09.281Z,14.73
2018-06-11T12:25:38.430Z,15.30
2018-06-11T12:28:07.559Z,15.23
2018-06-11T12:30:36.713Z,15.72
2018-06-11T12:33:06.067Z,15.77
2018-06-11T12:35:35.481Z,18.33
2018-06-11T12:38:04.958Z,16.63
2018-06-11T12:40:34.422Z,19.70
2018-06-11T12:43:03.821Z,19.23
2018-06-11T12:45:33.179Z,17.07
2018-06-11T12:48:02.596Z,18.80
2018-06-11T12:50:32.020Z,19.37
2018-06-11T12:53:01.360Z,18.57
2018-06-11T12:55:30.798Z,19.67
2018-06-11T12:58:00.214Z,20.13
2018-06-11T13:00:29.675Z,20.43
2018-06-11T13:02:59.120Z,20.50
2018-06-11T13:05:28.286Z,19.37
2018-06-11T13:07:57.620Z,19.40
2018-06-11T13:10:27.058Z,21.10
2018-06-11T13:12:56.503Z,19.87
2018-06-11T13:15:25.944Z,21.93
2018-06-11T13:17:55.323Z,22.17
2018-06-11T13:20:24.799Z,22.33
2018-06-11T13:22:54.242Z,22.00
2018-06-11T13:25:23.671Z,22.30
2018-06-11T13:27:53.110Z,21.67
2018-06-11T13:30:22.533Z,22.37
2018-06-11T13:32:53.028Z,22.07
2018-06-11T13:35:22.450Z,23.83
2018-06-11T13:37:51.855Z,22.33
2018-06-11T13:40:21.300Z,25.23
2018-06-11T13:42:51.719Z,23.67
2018-06-11T13:45:21.067Z,24.53
2018-06-11T13:47:50.526Z,25.03
2018-06-11T13:50:21.058Z,24.17
2018-06-11T13:52:58.514Z,24.57
2018-06-11T13:55:27.918Z,27.77
2018-06-11T13:57:57.341Z,28.23
2018-06-11T14:00:26.764Z,28.67
2018-06-11T14:02:56.109Z,29.33
2018-06-11T14:05:25.530Z,31.57
2018-06-11T14:07:54.898Z,31.43
2018-06-11T14:10:24.401Z,29.97
2018-06-11T14:13:00.893Z,31.73
2018-06-11T14:15:30.231Z,31.70
2018-06-11T14:17:59.698Z,32.13
2018-06-11T14:20:29.116Z,32.57
2018-06-11T14:22:58.530Z,30.83
2018-06-11T14:25:27.902Z,33.73
2018-06-11T14:27:57.233Z,31.57
2018-06-11T14:30:26.642Z,31.68
2018-06-11T14:32:56.289Z,31.93
2018-06-11T14:35:25.705Z,32.10
2018-06-11T14:37:55.138Z,30.32
2018-06-11T14:40:24.463Z,30.88
2018-06-11T14:42:54.047Z,31.87
2018-06-11T14:45:23.417Z,30.80
2018-06-11T14:47:52.705Z,27.73
2018-06-11T14:50:22.106Z,29.42
2018-06-11T14:52:52.514Z,27.90
2018-06-11T14:55:22.954Z,26.60
2018-06-11T14:57:52.354Z,26.52
2018-06-11T15:00:21.714Z,25.15
2018-06-11T15:02:52.147Z,23.90
2018-06-11T15:05:21.525Z,22.75
2018-06-11T15:07:50.945Z,23.80
2018-06-11T15:10:20.462Z,22.67
2018-06-11T15:12:50.958Z,24.95
2018-06-11T15:15:20.389Z,24.95
2018-06-11T15:17:49.722Z,23.98
2018-06-11T15:20:19.093Z,24.40
2018-06-11T15:22:56.399Z,24.15
2018-06-11T15:25:33.379Z,24.90
2018-06-11T15:28:02.520Z,23.57
2018-06-11T15:30:31.645Z,23.70
2018-06-11T15:33:00.597Z,24.50
2018-06-11T15:35:36.809Z,22.75
2018-06-11T15:38:06.283Z,25.90
2018-06-11T15:40:37.617Z,28.15
2018-06-11T15:43:07.073Z,30.77
2018-06-11T15:45:36.403Z,30.55
2018-06-11T15:48:05.771Z,27.77
2018-06-11T15:50:36.352Z,28.75
2018-06-11T15:53:05.727Z,29.35
2018-06-11T15:55:35.210Z,28.90
2018-06-11T15:58:04.598Z,27.42
2018-06-11T16:00:34.046Z,26.82
2018-06-11T16:03:03.460Z,27.32
2018-06-11T16:05:32.996Z,26.70
2018-06-11T16:08:02.369Z,28.92
2018-06-11T16:10:31.731Z,27.73
2018-06-11T16:13:01.046Z,27.87
2018-06-11T16:15:30.417Z,28.35
2018-06-11T16:17:59.783Z,28.00
2018-06-11T16:20:29.150Z,27.82
2018-06-11T16:22:58.590Z,27.82
2018-06-11T16:25:27.960Z,26.10
2018-06-11T16:27:57.273Z,25.88
2018-06-11T16:30:26.671Z,26.33
2018-06-11T16:32:56.020Z,25.92
2018-06-11T16:35:27.262Z,24.65
2018-06-11T16:38:04.110Z,25.80
2018-06-11T16:40:34.331Z,25.97
2018-06-11T16:43:03.521Z,24.57
2018-06-11T16:45:39.809Z,25.03
2018-06-11T16:48:09.125Z,24.30
2018-06-11T16:50:40.690Z,25.77
2018-06-11T16:53:10.129Z,24.67
2018-06-11T16:55:39.565Z,24.27
2018-06-11T16:58:08.939Z,25.67
2018-06-11T17:00:40.301Z,25.53
2018-06-11T17:03:09.706Z,26.03
2018-06-11T17:05:39.038Z,25.53
2018-06-11T17:08:08.495Z,28.13
2018-06-11T17:10:38.893Z,27.57
2018-06-11T17:13:08.262Z,27.07
2018-06-11T17:15:37.534Z,26.17
2018-06-11T17:18:06.922Z,26.27
2018-06-11T17:20:37.291Z,27.17
2018-06-11T17:23:06.687Z,26.20
2018-06-11T17:25:36.047Z,26.93
2018-06-11T17:28:05.398Z,28.00
2018-06-11T17:30:34.869Z,27.83
2018-06-11T17:33:04.383Z,27.70
2018-06-11T17:35:33.802Z,29.00
2018-06-11T17:38:03.117Z,28.63
2018-06-11T17:40:32.482Z,29.37
2018-06-11T17:43:01.893Z,32.43
2018-06-11T17:45:31.295Z,32.73
2018-06-11T17:48:00.668Z,36.93
2018-06-11T17:50:29.997Z,35.13
2018-06-11T17:52:59.381Z,35.37
2018-06-11T17:57:58.166Z,38.90
2018-06-11T18:00:27.382Z,37.93
2018-06-11T18:02:56.528Z,39.57
2018-06-11T18:05:26.033Z,39.43
2018-06-11T18:07:55.406Z,39.67
2018-06-11T18:10:24.841Z,38.20
2018-06-11T18:12:53.998Z,40.03
2018-06-11T18:15:23.358Z,37.70
2018-06-11T18:17:52.707Z,38.93
2018-06-11T18:20:22.106Z,40.10
2018-06-11T18:22:52.542Z,37.57
2018-06-11T18:25:21.930Z,38.63
2018-06-11T18:30:20.567Z,38.77
2018-06-11T18:32:50.902Z,39.27
2018-06-11T18:35:20.305Z,42.10
2018-06-11T18:37:49.739Z,38.90
2018-06-11T18:40:19.133Z,41.73
2018-06-11T18:42:50.670Z,38.73
2018-06-11T18:45:20.031Z,39.80
2018-06-11T18:47:49.562Z,39.33
2018-06-11T18:50:18.954Z,38.77
2018-06-11T18:52:49.496Z,39.53
2018-06-11T18:55:26.681Z,37.67
2018-06-11T18:57:55.976Z,38.13
2018-06-11T19:00:27.471Z,37.27
2018-06-11T19:02:56.873Z,38.73
2018-06-11T19:05:26.249Z,38.70
2018-06-11T19:07:55.606Z,40.60
2018-06-11T19:10:25.054Z,38.00
2018-06-11T19:12:54.382Z,42.30
2018-06-11T19:15:23.798Z,40.17
2018-06-11T19:17:53.235Z,41.80
2018-06-11T19:20:22.623Z,40.70
2018-06-11T19:22:53.986Z,40.60
2018-06-11T19:25:23.401Z,45.40
2018-06-11T19:27:53.373Z,55.50
2018-06-11T19:30:22.716Z,43.77
2018-06-11T19:32:52.948Z,47.77
2018-06-11T19:35:23.205Z,67.07
2018-06-11T19:37:52.732Z,44.60
2018-06-11T19:43:55.505Z,58.73
2018-06-11T19:46:35.474Z,56.53
2018-06-11T19:49:07.094Z,74.03
2018-06-11T19:51:36.856Z,60.50
2018-06-11T19:57:09.420Z,30.43
2018-06-11T19:59:39.007Z,37.77
2018-06-11T20:02:09.624Z,39.83
2018-06-11T20:04:39.310Z,39.00
2018-06-11T20:07:08.795Z,31.20
2018-06-11T20:09:38.331Z,31.57
2018-06-11T20:12:11.381Z,28.17
2018-06-11T20:14:40.821Z,37.17
2018-06-11T20:17:10.708Z,35.40
2018-06-11T20:19:41.415Z,30.03
2018-06-11T20:22:15.028Z,27.20
2018-06-11T20:24:44.638Z,24.37
2018-06-11T20:27:14.211Z,28.27
2018-06-11T20:29:43.791Z,37.97
2018-06-11T20:32:13.387Z,33.40
2018-06-11T20:34:43.040Z,37.97
2018-06-11T20:37:12.659Z,33.07
2018-06-11T20:39:42.354Z,37.07
2018-06-11T20:42:13.157Z,38.77
2018-06-11T20:44:42.785Z,35.40
2018-06-11T20:47:12.450Z,33.77
2018-06-11T20:49:41.999Z,31.30
2018-06-11T20:52:12.865Z,35.80
2018-06-11T20:54:42.762Z,28.93
2018-06-11T20:57:12.547Z,28.20
2018-06-11T20:59:42.211Z,29.93
2018-06-11T21:02:13.101Z,34.33
2018-06-11T21:04:42.832Z,34.27
2018-06-11T21:07:28.646Z,31.67
2018-06-11T21:09:58.443Z,25.67
2018-06-11T21:12:29.711Z,25.23
2018-06-11T21:15:15.576Z,25.50
2018-06-11T21:17:47.594Z,30.07
2018-06-11T21:20:32.477Z,25.07
2018-06-11T21:26:04.446Z,33.40
2018-06-11T21:28:34.187Z,36.93
2018-06-11T21:31:05.896Z,43.57
2018-06-11T21:33:35.556Z,40.43
2018-06-11T21:36:05.155Z,43.10
2018-06-11T21:38:34.809Z,46.83
2018-06-11T21:41:05.667Z,49.20
2018-06-11T21:43:35.311Z,40.23
2018-06-11T21:46:05.058Z,44.03
2018-06-11T21:48:34.756Z,51.93
2018-06-11T21:51:04.471Z,49.50
2018-06-11T21:53:34.118Z,44.57
2018-06-11T21:56:03.809Z,48.07
2018-06-11T21:58:33.499Z,52.50
2018-06-11T22:01:03.142Z,48.77
2018-06-11T22:03:32.808Z,50.87
2018-06-11T22:06:02.456Z,45.70
2018-06-11T22:08:32.155Z,51.07
2018-06-11T22:13:42.310Z,60.80
2018-06-11T22:16:33.657Z,66.13
2018-06-11T22:22:45.404Z,72.43
2018-06-11T22:28:44.259Z,73.83
2018-06-11T22:34:50.231Z,80.43
2018-06-11T22:48:19.410Z,78.40
2018-06-11T22:51:15.236Z,81.67
2018-06-11T22:56:23.665Z,72.23
2018-06-11T22:58:53.994Z,80.43
2018-06-11T23:01:42.802Z,73.73
2018-06-11T23:04:20.920Z,81.07
2018-06-11T23:06:50.682Z,86.50
2018-06-11T23:09:20.655Z,97.57
2018-06-11T23:12:00.067Z,79.03
2018-06-11T23:14:30.085Z,90.70
2018-06-11T23:17:00.114Z,88.73
2018-06-11T23:19:31.940Z,86.90
2018-06-11T23:22:05.184Z,92.33
2018-06-11T23:24:35.981Z,89.90
2018-06-11T23:27:05.903Z,93.70
2018-06-11T23:29:35.502Z,93.37
2018-06-11T23:32:06.271Z,94.30
2018-06-11T23:34:35.839Z,96.30
2018-06-11T23:37:05.562Z,95.07
2018-06-11T23:39:36.420Z,103.10
2018-06-11T23:42:07.102Z,100.17
2018-06-11T23:44:36.827Z,87.73
2018-06-11T23:50:04.231Z,127.83
2018-06-11T23:52:34.922Z,118.30
2018-06-11T23:55:04.709Z,121.23
2018-06-11T23:57:34.528Z,155.10
